createdAt,value
2023-03-12T00:01:33.357Z,11.13
2023-03-12T00:04:22.777Z,11.07
2023-03-12T00:07:13.540Z,11.08
2023-03-12T00:10:03.403Z,11.02
2023-03-12T00:12:52.781Z,10.92
2023-03-12T00:15:42.865Z,10.92
2023-03-12T00:18:32.272Z,10.88
2023-03-12T00:21:22.800Z,10.79
2023-03-12T00:24:13.356Z,10.82
2023-03-12T00:27:02.635Z,10.72
2023-03-12T00:29:52.106Z,10.74
2023-03-12T00:32:41.784Z,10.81
2023-03-12T00:35:30.985Z,10.77
2023-03-12T00:38:20.702Z,10.77
2023-03-12T00:41:12.559Z,10.76
2023-03-12T00:44:01.864Z,10.84
2023-03-12T00:46:51.196Z,10.91
2023-03-12T00:49:40.964Z,10.96
2023-03-12T00:52:30.177Z,10.98
2023-03-12T00:55:19.578Z,11.08
2023-03-12T00:58:10.311Z,11.10
2023-03-12T01:00:59.973Z,11.10
2023-03-12T01:03:51.681Z,11.03
2023-03-12T01:06:41.160Z,11.01
2023-03-12T01:09:30.510Z,11.00
2023-03-12T01:12:19.712Z,10.98
2023-03-12T01:15:13.775Z,10.91
2023-03-12T01:18:03.097Z,10.93
2023-03-12T01:20:52.514Z,11.02
2023-03-12T01:23:41.683Z,10.95
2023-03-12T01:26:30.894Z,10.90
2023-03-12T01:29:20.128Z,11.02
2023-03-12T01:32:10.928Z,11.04
2023-03-12T01:35:00.441Z,10.99
2023-03-12T01:37:49.723Z,10.92
2023-03-12T01:40:38.969Z,10.92
2023-03-12T01:43:32.509Z,10.93
2023-03-12T01:46:32.594Z,10.77
2023-03-12T01:49:28.565Z,10.75
2023-03-12T01:52:24.224Z,10.83
2023-03-12T01:55:19.085Z,10.75
2023-03-12T01:58:09.721Z,10.74
2023-03-12T02:00:59.189Z,10.76
2023-03-12T02:03:52.439Z,10.57
2023-03-12T02:06:55.083Z,10.77
2023-03-12T02:09:48.698Z,10.77
2023-03-12T02:12:38.101Z,10.73
2023-03-12T02:15:27.910Z,10.69
2023-03-12T02:18:20.011Z,10.67
2023-03-12T02:21:18.086Z,10.71
2023-03-12T02:24:22.956Z,10.63
2023-03-12T02:27:14.096Z,10.52
2023-03-12T02:30:06.830Z,10.54
2023-03-12T02:32:57.432Z,10.46
2023-03-12T02:35:48.835Z,10.60
2023-03-12T02:38:44.004Z,10.55
2023-03-12T02:41:37.389Z,10.53
2023-03-12T02:44:31.392Z,10.47
2023-03-12T02:47:20.855Z,10.57
2023-03-12T02:50:11.841Z,10.49
2023-03-12T02:53:01.062Z,10.52
2023-03-12T02:55:50.300Z,10.61
2023-03-12T02:58:39.599Z,10.62
2023-03-12T03:01:33.977Z,10.60
2023-03-12T03:04:24.007Z,10.53
2023-03-12T03:07:14.958Z,10.56
2023-03-12T03:10:05.069Z,10.69
2023-03-12T03:12:55.328Z,10.71
2023-03-12T03:15:44.740Z,10.67
2023-03-12T03:18:35.567Z,10.62
2023-03-12T03:21:24.834Z,10.57
2023-03-12T03:24:14.179Z,10.55
2023-03-12T03:27:03.442Z,10.55
2023-03-12T03:29:52.779Z,10.54
2023-03-12T03:32:42.836Z,10.65
2023-03-12T03:35:35.549Z,10.50
2023-03-12T03:38:25.283Z,10.55
2023-03-12T03:41:14.606Z,10.61
2023-03-12T03:44:07.881Z,10.64
2023-03-12T03:46:59.353Z,10.63
2023-03-12T03:49:48.934Z,10.52
2023-03-12T03:52:40.401Z,10.53
2023-03-12T03:55:29.775Z,10.56
2023-03-12T03:58:19.173Z,10.49
2023-03-12T04:01:09.076Z,10.54
2023-03-12T04:03:59.076Z,10.35
2023-03-12T04:06:50.971Z,10.40
2023-03-12T04:09:41.685Z,10.47
2023-03-12T04:12:31.352Z,10.49
2023-03-12T04:15:20.730Z,10.43
2023-03-12T04:18:11.293Z,10.46
2023-03-12T04:21:01.200Z,10.39
2023-03-12T04:23:50.656Z,10.54
2023-03-12T04:26:42.646Z,10.54
2023-03-12T04:29:32.791Z,10.56
2023-03-12T04:32:22.407Z,10.52
2023-03-12T04:35:12.067Z,10.58
2023-03-12T04:38:03.395Z,10.55
2023-03-12T04:41:00.375Z,10.63
2023-03-12T04:43:51.354Z,10.64
2023-03-12T04:46:41.812Z,10.61
2023-03-12T04:49:33.064Z,10.54
2023-03-12T04:52:22.717Z,10.60
2023-03-12T04:55:12.473Z,10.57
2023-03-12T04:58:02.285Z,10.50
2023-03-12T05:00:53.572Z,10.50
2023-03-12T05:03:43.100Z,10.50
2023-03-12T05:06:32.847Z,10.50
2023-03-12T05:09:22.130Z,10.46
2023-03-12T05:12:12.146Z,10.43
2023-03-12T05:15:01.490Z,10.47
2023-03-12T05:17:53.452Z,10.45
2023-03-12T05:20:43.953Z,10.50
2023-03-12T05:23:34.675Z,10.47
2023-03-12T05:26:26.522Z,10.44
2023-03-12T05:29:22.094Z,10.55
2023-03-12T05:32:11.713Z,10.59
2023-03-12T05:35:03.181Z,10.50
2023-03-12T05:37:52.526Z,10.57
2023-03-12T05:40:41.879Z,10.58
2023-03-12T05:43:31.634Z,10.55
2023-03-12T05:46:21.000Z,10.57
2023-03-12T05:49:10.490Z,10.48
2023-03-12T05:52:01.171Z,10.54
2023-03-12T05:54:50.581Z,10.52
2023-03-12T05:57:40.000Z,10.55
2023-03-12T06:00:29.784Z,10.53
2023-03-12T06:03:20.104Z,10.51
2023-03-12T06:06:09.455Z,10.50
2023-03-12T06:09:00.301Z,10.44
2023-03-12T06:11:49.630Z,10.45
2023-03-12T06:14:38.911Z,10.46
2023-03-12T06:17:30.417Z,10.49
2023-03-12T06:20:20.219Z,10.42
2023-03-12T06:23:09.569Z,10.42
2023-03-12T06:26:00.809Z,10.39
2023-03-12T06:28:51.699Z,10.32
2023-03-12T06:31:42.233Z,10.33
2023-03-12T06:34:31.649Z,10.30
2023-03-12T06:37:20.975Z,10.32
2023-03-12T06:40:13.146Z,10.36
2023-03-12T06:43:04.110Z,10.34
2023-03-12T06:45:53.515Z,10.32
2023-03-12T06:48:43.063Z,10.28
2023-03-12T06:51:32.475Z,10.36
2023-03-12T06:54:21.842Z,10.33
2023-03-12T06:57:11.451Z,10.31
2023-03-12T07:00:02.270Z,10.33
2023-03-12T07:02:51.466Z,10.34
2023-03-12T07:05:40.824Z,10.34
2023-03-12T07:08:31.227Z,10.34
2023-03-12T07:11:20.582Z,10.43
2023-03-12T07:14:09.893Z,10.35
2023-03-12T07:17:02.032Z,10.37
2023-03-12T07:19:51.227Z,10.41
2023-03-12T07:22:40.400Z,10.49
2023-03-12T07:25:29.720Z,10.48
2023-03-12T07:28:20.091Z,10.55
2023-03-12T07:31:09.624Z,10.52
2023-03-12T07:34:00.497Z,10.55
2023-03-12T07:36:49.976Z,10.55
2023-03-12T07:39:39.631Z,10.57
2023-03-12T07:42:28.919Z,10.60
2023-03-12T07:45:20.285Z,10.57
2023-03-12T07:48:09.771Z,10.68
2023-03-12T07:51:00.446Z,10.76
2023-03-12T07:53:50.361Z,10.80
2023-03-12T07:56:39.759Z,10.76
2023-03-12T07:59:29.054Z,10.84
2023-03-12T08:02:19.268Z,10.84
2023-03-12T08:05:09.829Z,10.85
2023-03-12T08:08:00.447Z,10.90
2023-03-12T08:10:50.083Z,10.92
2023-03-12T08:13:39.314Z,10.98
2023-03-12T08:16:28.774Z,11.06
2023-03-12T08:19:18.155Z,11.04
2023-03-12T08:22:08.515Z,11.08
2023-03-12T08:24:59.116Z,11.20
2023-03-12T08:27:48.420Z,11.23
2023-03-12T08:30:37.726Z,11.06
2023-03-12T08:33:27.272Z,11.33
2023-03-12T08:36:16.452Z,11.37
2023-03-12T08:39:06.647Z,11.34
2023-03-12T08:41:57.264Z,11.44
2023-03-12T08:44:46.611Z,11.50
2023-03-12T08:47:36.271Z,11.50
2023-03-12T08:50:29.281Z,11.41
2023-03-12T08:53:18.906Z,11.56
2023-03-12T08:56:09.124Z,11.65
2023-03-12T08:58:59.772Z,11.67
2023-03-12T09:01:49.816Z,11.78
2023-03-12T09:04:39.349Z,11.71
2023-03-12T09:07:28.733Z,12.41
2023-03-12T09:10:18.682Z,12.81
2023-03-12T09:13:08.682Z,12.91
2023-03-12T09:16:02.683Z,12.95
2023-03-12T09:18:52.372Z,12.79
2023-03-12T09:21:41.991Z,12.87
2023-03-12T09:24:31.487Z,12.85
2023-03-12T09:27:21.103Z,12.96
2023-03-12T09:30:14.684Z,13.05
2023-03-12T09:33:05.848Z,13.13
2023-03-12T09:35:59.668Z,13.05
2023-03-12T09:38:49.186Z,13.12
2023-03-12T09:41:41.801Z,13.06
2023-03-12T09:44:38.460Z,13.02
2023-03-12T09:47:33.693Z,12.86
2023-03-12T09:50:29.602Z,12.95
2023-03-12T09:53:30.160Z,12.87
2023-03-12T09:56:22.480Z,13.01
2023-03-12T09:59:14.079Z,13.22
2023-03-12T10:02:08.203Z,13.30
2023-03-12T10:05:01.993Z,13.38
2023-03-12T10:08:07.566Z,13.46
2023-03-12T10:11:11.567Z,13.66
2023-03-12T10:14:23.355Z,13.76
2023-03-12T10:17:48.766Z,14.08
2023-03-12T10:20:55.081Z,14.21
2023-03-12T10:24:02.344Z,14.47
2023-03-12T10:26:55.229Z,14.79
2023-03-12T10:29:48.123Z,14.93
2023-03-12T10:32:43.577Z,14.84
2023-03-12T10:35:33.221Z,14.90
2023-03-12T10:38:31.629Z,14.76
2023-03-12T10:41:25.301Z,14.66
2023-03-12T10:44:22.605Z,14.60
2023-03-12T10:47:38.427Z,14.93
2023-03-12T10:50:30.240Z,14.92
2023-03-12T10:53:26.782Z,15.30
2023-03-12T10:56:20.238Z,15.11
2023-03-12T10:59:23.114Z,14.93
2023-03-12T11:02:45.889Z,14.92
2023-03-12T11:05:48.644Z,15.02
2023-03-12T11:08:39.141Z,14.79
2023-03-12T11:11:34.155Z,14.82
2023-03-12T11:14:27.955Z,14.67
2023-03-12T11:17:24.026Z,14.82
2023-03-12T11:20:31.123Z,15.07
2023-03-12T11:23:25.304Z,15.16
2023-03-12T11:26:20.220Z,15.28
2023-03-12T11:29:27.737Z,15.30
2023-03-12T11:32:21.472Z,15.15
2023-03-12T11:35:13.525Z,15.30
2023-03-12T11:38:13.888Z,15.39
2023-03-12T11:41:19.712Z,15.28
2023-03-12T11:44:29.306Z,15.24
2023-03-12T11:47:39.695Z,15.31
2023-03-12T11:50:48.476Z,15.32
2023-03-12T11:53:59.639Z,15.21
2023-03-12T11:56:53.312Z,15.25
2023-03-12T12:00:12.763Z,15.25
2023-03-12T12:03:45.714Z,15.21
2023-03-12T12:06:48.436Z,15.31
2023-03-12T12:09:46.080Z,15.27
2023-03-12T12:12:52.184Z,15.35
2023-03-12T12:15:56.992Z,15.41
2023-03-12T12:19:05.738Z,15.57
2023-03-12T12:22:33.293Z,15.60
2023-03-12T12:25:43.990Z,15.86
2023-03-12T12:29:06.053Z,15.98
2023-03-12T12:31:59.417Z,15.85
2023-03-12T12:35:19.883Z,15.88
2023-03-12T12:38:15.956Z,15.81
2023-03-12T12:41:12.528Z,15.71
2023-03-12T12:44:07.578Z,15.72
2023-03-12T12:47:05.737Z,15.76
2023-03-12T12:49:59.523Z,15.74
2023-03-12T12:52:58.157Z,15.71
2023-03-12T12:55:57.056Z,15.68
2023-03-12T12:59:10.418Z,15.89
2023-03-12T13:02:03.870Z,16.06
2023-03-12T13:04:56.421Z,16.20
2023-03-12T13:07:45.622Z,16.54
2023-03-12T13:10:57.093Z,16.71
2023-03-12T13:14:13.256Z,17.06
2023-03-12T13:17:39.078Z,17.03
2023-03-12T13:20:36.997Z,17.21
2023-03-12T13:23:38.093Z,17.37
2023-03-12T13:26:32.902Z,17.36
2023-03-12T13:29:37.749Z,17.11
2023-03-12T13:33:14.152Z,17.00
2023-03-12T13:36:24.703Z,16.82
2023-03-12T13:39:32.200Z,16.61
2023-03-12T13:42:43.059Z,16.45
2023-03-12T13:45:32.434Z,16.19
2023-03-12T13:48:25.498Z,15.92
2023-03-12T13:51:19.429Z,15.75
2023-03-12T13:54:16.981Z,15.82
2023-03-12T13:57:13.478Z,15.77
2023-03-12T14:00:06.254Z,15.80
2023-03-12T14:03:03.094Z,15.83
2023-03-12T14:05:59.007Z,15.84
2023-03-12T14:09:05.513Z,15.81
2023-03-12T14:12:04.629Z,15.78
2023-03-12T14:15:16.732Z,15.78
2023-03-12T14:18:16.757Z,15.69
2023-03-12T14:21:15.611Z,15.62
2023-03-12T14:24:07.643Z,15.61
2023-03-12T14:26:58.755Z,15.74
2023-03-12T14:29:54.526Z,15.91
2023-03-12T14:32:45.583Z,15.74
2023-03-12T14:35:39.445Z,15.75
2023-03-12T14:38:35.596Z,15.88
2023-03-12T14:41:30.942Z,15.98
2023-03-12T14:44:25.171Z,15.88
2023-03-12T14:47:19.489Z,15.84
2023-03-12T14:50:18.692Z,15.63
2023-03-12T14:53:19.612Z,15.64
2023-03-12T14:56:16.892Z,15.54
2023-03-12T14:59:27.892Z,15.38
2023-03-12T15:02:21.482Z,15.16
2023-03-12T15:05:19.528Z,15.44
2023-03-12T15:08:09.005Z,15.36
2023-03-12T15:11:00.698Z,15.23
2023-03-12T15:13:52.328Z,15.21
2023-03-12T15:16:42.912Z,15.47
2023-03-12T15:19:37.292Z,15.48
2023-03-12T15:22:28.840Z,15.45
2023-03-12T15:25:25.156Z,15.36
2023-03-12T15:28:30.087Z,15.52
2023-03-12T15:31:21.397Z,15.34
2023-03-12T15:34:14.282Z,15.37
2023-03-12T15:37:20.533Z,15.33
2023-03-12T15:40:22.349Z,15.26
2023-03-12T15:43:20.576Z,15.28
2023-03-12T15:46:13.371Z,15.21
2023-03-12T15:49:04.293Z,15.21
2023-03-12T15:52:08.204Z,14.99
2023-03-12T15:55:25.464Z,15.00
2023-03-12T15:58:29.870Z,15.01
2023-03-12T16:01:24.129Z,14.91
2023-03-12T16:04:15.093Z,14.95
2023-03-12T16:07:04.612Z,14.72
2023-03-12T16:09:53.902Z,14.70
2023-03-12T16:12:44.686Z,14.59
2023-03-12T16:15:37.922Z,14.72
2023-03-12T16:18:27.396Z,14.68
2023-03-12T16:21:18.304Z,14.59
2023-03-12T16:24:08.300Z,14.61
2023-03-12T16:27:00.020Z,14.69
2023-03-12T16:29:49.299Z,14.70
2023-03-12T16:32:38.627Z,14.73
2023-03-12T16:35:28.785Z,14.80
2023-03-12T16:38:19.503Z,14.69
2023-03-12T16:41:12.834Z,14.68
2023-03-12T16:44:02.708Z,14.82
2023-03-12T16:46:52.013Z,14.75
2023-03-12T16:49:41.847Z,14.73
2023-03-12T16:52:31.612Z,14.72
2023-03-12T16:55:24.602Z,14.70
2023-03-12T16:58:16.861Z,14.72
2023-03-12T17:01:06.470Z,14.66
2023-03-12T17:03:55.845Z,14.80
2023-03-12T17:06:45.234Z,14.71
2023-03-12T17:09:34.597Z,14.71
2023-03-12T17:12:30.676Z,14.77
2023-03-12T17:15:24.104Z,14.85
2023-03-12T17:18:14.431Z,14.81
2023-03-12T17:21:03.698Z,14.72
2023-03-12T17:23:52.930Z,14.59
2023-03-12T17:26:42.246Z,14.69
2023-03-12T17:29:32.991Z,14.69
2023-03-12T17:32:22.357Z,14.68
2023-03-12T17:35:12.165Z,14.60
2023-03-12T17:38:01.673Z,14.66
2023-03-12T17:40:50.964Z,14.72
2023-03-12T17:43:41.309Z,14.67
2023-03-12T17:46:32.629Z,14.65
2023-03-12T17:49:22.750Z,14.66
2023-03-12T17:52:13.250Z,14.56
2023-03-12T17:55:03.472Z,14.56
2023-03-12T17:57:52.722Z,14.50
2023-03-12T18:00:42.115Z,14.39
2023-03-12T18:03:32.881Z,14.39
2023-03-12T18:06:22.399Z,14.36
2023-03-12T18:09:11.650Z,14.34
2023-03-12T18:12:01.106Z,14.27
2023-03-12T18:14:50.294Z,14.25
2023-03-12T18:17:40.109Z,14.23
2023-03-12T18:20:38.558Z,14.21
2023-03-12T18:23:28.611Z,14.21
2023-03-12T18:26:17.864Z,14.20
2023-03-12T18:29:07.137Z,14.18
2023-03-12T18:31:56.727Z,14.24
2023-03-12T18:34:45.900Z,14.29
2023-03-12T18:37:36.661Z,14.30
2023-03-12T18:40:27.684Z,14.23
2023-03-12T18:43:19.688Z,14.20
2023-03-12T18:46:11.473Z,14.16
2023-03-12T18:49:05.820Z,14.15
2023-03-12T18:51:56.186Z,14.12
2023-03-12T18:54:46.785Z,14.07
2023-03-12T18:57:35.994Z,14.03
2023-03-12T19:00:25.596Z,13.94
2023-03-12T19:03:14.891Z,13.99
2023-03-12T19:06:06.587Z,13.92
2023-03-12T19:08:56.600Z,13.88
2023-03-12T19:11:48.288Z,13.90
2023-03-12T19:14:37.629Z,13.85
2023-03-12T19:17:28.604Z,13.83
2023-03-12T19:20:18.166Z,13.77
2023-03-12T19:23:07.792Z,13.79
2023-03-12T19:25:57.310Z,13.79
2023-03-12T19:28:48.138Z,13.79
2023-03-12T19:31:37.625Z,13.80
2023-03-12T19:34:27.008Z,13.79
2023-03-12T19:37:16.722Z,13.76
2023-03-12T19:40:07.529Z,13.71
2023-03-12T19:42:56.747Z,13.71
2023-03-12T19:45:48.070Z,13.76
2023-03-12T19:48:37.422Z,13.80
2023-03-12T19:51:27.062Z,13.78
2023-03-12T19:54:17.551Z,13.76
2023-03-12T19:57:06.841Z,13.73
2023-03-12T19:59:56.121Z,13.74
2023-03-12T20:02:47.016Z,13.74
2023-03-12T20:05:36.472Z,13.75
2023-03-12T20:08:31.470Z,13.76
2023-03-12T20:11:20.825Z,13.80
2023-03-12T20:14:10.022Z,13.79
2023-03-12T20:16:59.372Z,13.91
2023-03-12T20:19:49.975Z,13.94
2023-03-12T20:22:39.379Z,13.89
2023-03-12T20:25:28.681Z,14.00
2023-03-12T20:28:19.037Z,14.09
2023-03-12T20:31:12.117Z,14.03
2023-03-12T20:34:01.331Z,14.08
2023-03-12T20:36:51.993Z,14.08
2023-03-12T20:39:41.130Z,13.97
2023-03-12T20:42:30.310Z,13.97
2023-03-12T20:45:19.800Z,14.11
2023-03-12T20:48:09.067Z,14.18
2023-03-12T20:50:58.610Z,14.20
2023-03-12T20:53:49.322Z,14.32
2023-03-12T20:56:43.506Z,14.26
2023-03-12T20:59:32.778Z,14.33
2023-03-12T21:02:22.079Z,14.27
2023-03-12T21:05:13.813Z,14.32
2023-03-12T21:08:02.953Z,14.36
2023-03-12T21:10:53.945Z,14.39
2023-03-12T21:13:43.219Z,14.40
2023-03-12T21:16:32.591Z,14.40
2023-03-12T21:19:22.123Z,14.42
2023-03-12T21:22:11.610Z,14.45
2023-03-12T21:25:00.898Z,14.48
2023-03-12T21:27:52.082Z,14.52
2023-03-12T21:30:41.312Z,14.52
2023-03-12T21:33:30.537Z,14.62
2023-03-12T21:36:19.732Z,14.56
2023-03-12T21:39:09.579Z,14.58
2023-03-12T21:41:58.926Z,14.56
2023-03-12T21:44:49.592Z,14.61
2023-03-12T21:47:39.477Z,14.63
2023-03-12T21:50:28.789Z,14.62
2023-03-12T21:53:23.755Z,14.58
2023-03-12T21:56:14.236Z,14.54
2023-03-12T21:59:03.709Z,14.65
2023-03-12T22:01:54.462Z,14.73
2023-03-12T22:04:43.819Z,14.73
2023-03-12T22:07:33.082Z,14.75
2023-03-12T22:10:22.372Z,14.65
2023-03-12T22:13:11.646Z,14.68
2023-03-12T22:16:03.411Z,14.70
2023-03-12T22:18:54.046Z,14.69
2023-03-12T22:21:43.594Z,14.74
2023-03-12T22:24:32.788Z,14.76
2023-03-12T22:27:21.964Z,14.73
2023-03-12T22:30:14.804Z,14.69
2023-03-12T22:33:03.945Z,14.71
2023-03-12T22:35:55.002Z,14.62
2023-03-12T22:38:44.652Z,14.64
2023-03-12T22:41:34.158Z,14.48
2023-03-12T22:44:23.369Z,14.63
2023-03-12T22:47:12.533Z,14.49
2023-03-12T22:50:01.725Z,14.45
2023-03-12T22:52:52.360Z,14.43
2023-03-12T22:55:41.578Z,14.47
2023-03-12T22:58:31.307Z,14.45
2023-03-12T23:01:23.758Z,14.40
2023-03-12T23:04:13.198Z,14.47
2023-03-12T23:07:13.625Z,14.41
2023-03-12T23:10:06.586Z,14.36
2023-03-12T23:12:56.025Z,14.36
2023-03-12T23:15:45.308Z,14.35
2023-03-12T23:18:35.874Z,14.46
2023-03-12T23:21:26.343Z,14.49
2023-03-12T23:24:15.740Z,14.40
2023-03-12T23:27:07.197Z,14.46
2023-03-12T23:29:56.432Z,14.44
2023-03-12T23:32:45.692Z,14.45
2023-03-12T23:35:35.363Z,14.52
2023-03-12T23:38:24.770Z,14.52
2023-03-12T23:41:17.488Z,14.54
2023-03-12T23:44:08.596Z,14.61
2023-03-12T23:46:57.870Z,14.57
2023-03-12T23:49:47.035Z,14.50
2023-03-12T23:52:36.429Z,14.65
2023-03-12T23:55:25.800Z,14.40
2023-03-12T23:58:15.006Z,14.48
